Time;durP1;ratioP1;P1;durP2;ratioP2;P2;SDS_P1;SDS_P2;PMS_P1;PMS_P2;Temp;Humidity;BMP_temperature;BMP_pressure;BME280_temperature;BME280_humidity;BME280_pressure;Samples;Min_cycle;Max_cycle;Signal;HPM_P1;HPM_P2
2021/12/23 00:01:34;;;;;;;150.05;50.10;;;-5.60;99.90;;;;;;6141285;23;20025;-81
2021/12/23 00:04:21;;;;;;;160.10;53.03;;;-5.60;99.90;;;;;;6160681;23;20090;-82
2021/12/23 00:07:09;;;;;;;159.18;51.88;;;-5.70;99.90;;;;;;6140730;23;20028;-81
2021/12/23 00:10:05;;;;;;;147.82;49.88;;;-5.60;99.90;;;;;;6162164;23;20312;-83
2021/12/23 00:12:54;;;;;;;139.02;48.33;;;-5.60;99.90;;;;;;6182741;23;20359;-83
2021/12/23 00:18:49;;;;;;;140.82;48.67;;;-5.50;99.90;;;;;;6165052;23;20064;-82
2021/12/23 00:24:43;;;;;;;145.48;48.13;;;-5.50;99.90;;;;;;6183401;23;20409;-82
2021/12/23 00:27:32;;;;;;;139.90;47.60;;;-5.40;99.90;;;;;;6141555;23;20083;-81
2021/12/23 00:30:23;;;;;;;147.15;48.05;;;-5.40;99.90;;;;;;6184296;23;20087;-82
2021/12/23 00:33:10;;;;;;;135.98;46.60;;;-5.40;99.90;;;;;;6140354;23;20032;-83
2021/12/23 00:35:58;;;;;;;132.23;45.20;;;-5.40;99.90;;;;;;6162183;23;20029;-83
2021/12/23 00:38:54;;;;;;;136.30;47.13;;;-5.40;99.90;;;;;;6142347;23;20044;-83
2021/12/23 00:41:44;;;;;;;139.52;46.60;;;-5.30;99.90;;;;;;6161632;23;20029;-83
2021/12/23 00:44:32;;;;;;;131.15;46.45;;;-5.30;99.90;;;;;;6121598;23;20088;-83
2021/12/23 00:47:19;;;;;;;137.07;46.17;;;-5.30;99.90;;;;;;6141005;23;20115;-84
2021/12/23 00:50:07;;;;;;;126.53;47.40;;;-5.30;99.90;;;;;;6141339;23;20087;-83
2021/12/23 00:53:04;;;;;;;133.45;44.88;;;-5.40;99.90;;;;;;6159715;23;20080;-80
2021/12/23 00:55:54;;;;;;;133.23;45.83;;;-5.40;99.90;;;;;;6182427;23;20079;-83
2021/12/23 00:58:44;;;;;;;136.77;45.47;;;-5.40;99.90;;;;;;6183296;23;20127;-83
2021/12/23 01:01:32;;;;;;;131.07;45.95;;;-5.40;99.90;;;;;;6163785;23;20329;-82
2021/12/23 01:04:24;;;;;;;122.88;43.78;;;-5.50;99.90;;;;;;6163696;23;20119;-82
2021/12/23 01:07:13;;;;;;;121.18;42.30;;;-5.60;99.90;;;;;;6166921;23;20025;-84
2021/12/23 01:10:00;;;;;;;121.53;45.17;;;-5.60;99.90;;;;;;6145138;23;20326;-83
2021/12/23 01:12:56;;;;;;;126.55;45.08;;;-5.50;99.90;;;;;;6142507;23;20039;-83
2021/12/23 01:16:01;;;;;;;129.05;45.55;;;-5.40;99.90;;;;;;6162513;23;20081;-82
2021/12/23 01:18:53;;;;;;;122.13;43.08;;;-5.30;99.90;;;;;;6131491;23;20057;-82
2021/12/23 01:21:43;;;;;;;128.27;44.72;;;-5.30;99.90;;;;;;6167137;23;20108;-82
2021/12/23 01:24:33;;;;;;;123.60;44.15;;;-5.30;99.90;;;;;;6194833;23;20025;-81
2021/12/23 01:27:20;;;;;;;120.60;42.70;;;-5.40;99.90;;;;;;6194076;23;20087;-81
2021/12/23 01:30:10;;;;;;;114.57;44.35;;;-5.40;99.90;;;;;;6154962;23;20309;-83
2021/12/23 01:32:59;;;;;;;119.78;45.13;;;-5.40;99.90;;;;;;6184017;23;20151;-83
2021/12/23 01:35:50;;;;;;;127.55;43.92;;;-5.40;99.90;;;;;;6181878;23;20029;-81
2021/12/23 01:38:37;;;;;;;124.03;43.35;;;-5.50;99.90;;;;;;6178249;23;20021;-83
2021/12/23 01:41:28;;;;;;;122.70;44.80;;;-5.50;99.90;;;;;;6174103;23;20025;-82
2021/12/23 01:44:25;;;;;;;116.22;42.88;;;-5.60;99.90;;;;;;6156889;23;20053;-81
2021/12/23 01:47:12;;;;;;;113.85;41.50;;;-5.70;99.90;;;;;;6145753;23;20025;-83
2021/12/23 01:50:00;;;;;;;117.82;42.70;;;-5.70;99.90;;;;;;6144565;23;20025;-81
2021/12/23 01:52:48;;;;;;;113.65;41.67;;;-5.80;99.90;;;;;;6164793;23;20025;-84
2021/12/23 01:55:38;;;;;;;112.43;42.67;;;-5.80;99.90;;;;;;6164714;23;20080;-83
2021/12/23 01:58:25;;;;;;;107.88;40.63;;;-5.80;99.90;;;;;;6165693;23;20097;-82
2021/12/23 02:01:12;;;;;;;106.30;41.63;;;-5.80;99.90;;;;;;6166230;23;20025;-83
2021/12/23 02:04:04;;;;;;;114.35;43.13;;;-5.70;99.90;;;;;;6216461;23;20032;-81
2021/12/23 02:06:51;;;;;;;116.65;43.50;;;-5.70;99.90;;;;;;6221642;23;20063;-81
2021/12/23 02:09:41;;;;;;;114.68;42.05;;;-5.70;99.90;;;;;;6212683;23;20029;-84
2021/12/23 02:12:28;;;;;;;109.35;40.95;;;-5.60;99.90;;;;;;6190534;23;20044;-82
2021/12/23 02:15:17;;;;;;;125.05;42.72;;;-5.50;99.90;;;;;;6213211;23;20021;-82
2021/12/23 02:18:04;;;;;;;113.45;42.75;;;-5.20;99.90;;;;;;6213304;23;20125;-83
2021/12/23 02:20:53;;;;;;;107.05;40.60;;;-5.20;99.90;;;;;;6210723;23;20032;-82
2021/12/23 02:23:42;;;;;;;109.90;43.03;;;-5.10;99.90;;;;;;6194024;23;20039;-83
2021/12/23 02:26:32;;;;;;;109.53;39.83;;;-4.90;99.90;;;;;;6212003;23;20463;-82
2021/12/23 02:29:19;;;;;;;116.65;41.83;;;-4.80;99.90;;;;;;6213267;23;20412;-82
2021/12/23 02:32:07;;;;;;;105.68;41.28;;;-4.80;99.90;;;;;;6213609;23;20056;-83
2021/12/23 02:34:55;;;;;;;109.32;41.35;;;-4.80;99.90;;;;;;6211344;23;20285;-83
2021/12/23 02:37:43;;;;;;;116.72;42.08;;;-4.80;99.90;;;;;;6213233;23;20403;-84
2021/12/23 02:40:35;;;;;;;98.05;38.33;;;-4.80;99.90;;;;;;6212724;23;20025;-83
2021/12/23 02:43:29;;;;;;;102.40;40.67;;;-4.80;99.90;;;;;;6215111;22;20155;-83
2021/12/23 02:46:19;;;;;;;104.70;39.95;;;-4.80;99.90;;;;;;6214343;23;20036;-83
2021/12/23 02:49:24;;;;;;;98.90;37.38;;;-4.80;99.90;;;;;;6178064;23;20040;-82
2021/12/23 02:52:11;;;;;;;102.22;37.50;;;-4.70;99.90;;;;;;6159247;23;20077;-84
2021/12/23 02:54:58;;;;;;;105.63;39.47;;;-4.50;99.90;;;;;;6161172;23;20152;-82
2021/12/23 02:57:53;;;;;;;88.65;36.22;;;-4.50;99.90;;;;;;6180725;23;20028;-81
2021/12/23 03:00:45;;;;;;;97.80;38.90;;;-4.50;99.90;;;;;;6159556;23;20029;-82
2021/12/23 03:03:33;;;;;;;98.72;38.28;;;-4.60;99.90;;;;;;6182375;23;20029;-82
2021/12/23 03:06:22;;;;;;;93.78;36.25;;;-4.60;99.90;;;;;;6182126;23;20215;-83
2021/12/23 03:09:13;;;;;;;97.88;37.10;;;-4.70;99.90;;;;;;6179856;23;20036;-83
2021/12/23 03:12:01;;;;;;;99.50;37.95;;;-4.80;99.90;;;;;;6162013;23;20061;-83
2021/12/23 03:14:48;;;;;;;91.85;35.72;;;-4.80;99.90;;;;;;6182431;23;20033;-83
2021/12/23 03:17:36;;;;;;;93.85;36.53;;;-4.60;99.90;;;;;;6181668;23;20146;-83
2021/12/23 03:20:23;;;;;;;91.85;37.30;;;-4.40;99.90;;;;;;6181316;23;20051;-83
2021/12/23 03:23:11;;;;;;;93.63;37.17;;;-4.30;99.90;;;;;;6213509;23;20024;-83
2021/12/23 03:26:01;;;;;;;101.13;38.70;;;-4.20;99.90;;;;;;6213384;23;20078;-83
2021/12/23 03:28:48;;;;;;;96.28;37.22;;;-4.20;99.90;;;;;;6216902;23;20043;-81
2021/12/23 03:31:35;;;;;;;92.93;35.72;;;-4.10;99.90;;;;;;6200206;23;20079;-81
2021/12/23 03:34:23;;;;;;;88.47;34.42;;;-4.00;99.90;;;;;;6229259;23;20028;-79
2021/12/23 03:37:10;;;;;;;83.78;33.72;;;-4.00;99.90;;;;;;6213739;23;20009;-82
2021/12/23 03:39:57;;;;;;;80.05;32.22;;;-4.00;99.90;;;;;;6214768;23;20020;-80
2021/12/23 03:42:44;;;;;;;84.63;35.67;;;-3.90;99.90;;;;;;6227654;23;20043;-81
2021/12/23 03:45:32;;;;;;;78.05;32.88;;;-3.90;99.90;;;;;;6234841;23;20024;-80
2021/12/23 03:48:21;;;;;;;78.38;33.17;;;-3.90;99.90;;;;;;6238856;23;20012;-81
2021/12/23 03:51:09;;;;;;;79.57;33.67;;;-3.90;99.90;;;;;;6226943;23;20094;-81
2021/12/23 03:53:58;;;;;;;81.47;35.20;;;-4.00;99.90;;;;;;6229262;22;20036;-82
2021/12/23 03:56:46;;;;;;;83.40;35.15;;;-4.10;99.90;;;;;;6206824;23;20048;-83
2021/12/23 03:59:34;;;;;;;81.55;33.70;;;-4.20;99.90;;;;;;6218662;23;20091;-84
2021/12/23 04:02:21;;;;;;;78.47;33.42;;;-4.30;99.90;;;;;;6206215;23;20036;-82
2021/12/23 04:05:10;;;;;;;81.18;34.22;;;-4.40;99.90;;;;;;6185720;23;20032;-82
2021/12/23 04:07:59;;;;;;;81.15;33.33;;;-4.40;99.90;;;;;;6139697;23;20140;-81
2021/12/23 04:10:46;;;;;;;83.07;33.70;;;-4.40;99.90;;;;;;6164009;23;20029;-84
2021/12/23 04:13:36;;;;;;;83.20;33.38;;;-4.30;99.90;;;;;;6142047;23;20040;-82
2021/12/23 04:16:25;;;;;;;86.05;32.88;;;-4.30;99.90;;;;;;6184548;23;20135;-82
2021/12/23 04:19:12;;;;;;;82.18;33.17;;;-4.40;99.90;;;;;;6163941;23;20025;-82
2021/12/23 04:22:01;;;;;;;84.43;31.27;;;-4.20;99.90;;;;;;6163141;23;20120;-83
2021/12/23 04:24:49;;;;;;;76.75;30.98;;;-4.00;99.90;;;;;;6161904;23;20057;-84
2021/12/23 04:27:37;;;;;;;84.25;35.13;;;-4.00;99.90;;;;;;6186609;23;20021;-82
2021/12/23 04:30:25;;;;;;;75.70;30.48;;;-3.90;99.90;;;;;;6144519;23;20029;-81
2021/12/23 04:33:13;;;;;;;77.00;32.65;;;-3.90;99.90;;;;;;6160864;23;20409;-84
2021/12/23 04:36:00;;;;;;;80.97;32.83;;;-3.90;99.90;;;;;;6163145;23;20029;-82
2021/12/23 04:38:48;;;;;;;78.63;30.50;;;-3.80;99.90;;;;;;6187533;23;20025;-81
2021/12/23 04:41:36;;;;;;;90.78;34.33;;;-3.80;99.90;;;;;;6143677;23;20395;-83
2021/12/23 04:44:23;;;;;;;76.65;32.17;;;-3.70;99.90;;;;;;6163387;23;20037;-83
2021/12/23 04:47:10;;;;;;;81.75;34.60;;;-3.70;99.90;;;;;;6143326;23;20029;-82
2021/12/23 04:50:00;;;;;;;78.72;30.85;;;-3.70;99.90;;;;;;6167794;23;20099;-83
2021/12/23 04:52:49;;;;;;;80.15;32.60;;;-3.70;99.90;;;;;;6147253;23;20025;-82
2021/12/23 04:55:38;;;;;;;79.88;33.33;;;-3.70;99.90;;;;;;6166261;23;20040;-83
2021/12/23 04:58:26;;;;;;;75.40;32.22;;;-3.70;99.90;;;;;;6165554;23;20036;-82
2021/12/23 05:01:28;;;;;;;83.32;33.13;;;-3.60;99.90;;;;;;6142883;23;20029;-82
2021/12/23 05:04:18;;;;;;;77.75;31.58;;;-3.60;99.90;;;;;;6197683;23;20059;-82
2021/12/23 05:07:05;;;;;;;85.15;32.58;;;-3.60;99.90;;;;;;6198080;23;20028;-82
2021/12/23 05:09:53;;;;;;;80.43;34.10;;;-3.70;99.90;;;;;;6198115;23;20040;-82
2021/12/23 05:12:45;;;;;;;74.38;31.70;;;-3.60;99.90;;;;;;6201220;23;20083;-84
2021/12/23 05:15:33;;;;;;;82.60;32.72;;;-3.70;99.90;;;;;;6201170;23;20098;-82
2021/12/23 05:18:21;;;;;;;80.63;32.70;;;-3.70;99.90;;;;;;6230765;23;20106;-82
2021/12/23 05:21:10;;;;;;;86.93;36.08;;;-3.80;99.90;;;;;;6229804;23;20025;-81
2021/12/23 05:23:58;;;;;;;79.30;32.40;;;-3.80;99.90;;;;;;6232080;23;20020;-83
2021/12/23 05:26:46;;;;;;;77.60;32.25;;;-3.90;99.90;;;;;;6225979;23;20028;-78
2021/12/23 05:29:38;;;;;;;78.05;31.25;;;-3.90;99.90;;;;;;6235276;23;20348;-82
2021/12/23 05:32:25;;;;;;;82.72;32.75;;;-4.00;99.90;;;;;;6185513;23;20340;-82
2021/12/23 05:35:17;;;;;;;80.68;32.88;;;-4.00;99.90;;;;;;6225483;23;20094;-83
2021/12/23 05:38:04;;;;;;;82.45;32.83;;;-4.10;99.90;;;;;;6224097;23;20028;-83
2021/12/23 05:40:59;;;;;;;86.60;32.97;;;-4.20;99.90;;;;;;6208015;23;20089;-79
2021/12/23 06:09:39;;;;;;;83.00;32.25;;;-4.70;99.90;;;;;;5970341;23;20074;-79
2021/12/23 06:12:27;;;;;;;80.63;32.30;;;-4.70;99.90;;;;;;6136606;23;20021;-78
2021/12/23 06:15:15;;;;;;;71.70;30.05;;;-4.60;99.90;;;;;;6201271;23;20024;-80
2021/12/23 06:18:05;;;;;;;80.78;32.63;;;-4.50;99.90;;;;;;6221774;23;20177;-81
2021/12/23 06:20:52;;;;;;;81.40;32.00;;;-4.20;99.90;;;;;;6223250;23;20035;-80
2021/12/23 06:23:45;;;;;;;79.40;31.77;;;-3.90;99.90;;;;;;6223877;23;20028;-82
2021/12/23 06:26:52;;;;;;;82.13;32.00;;;-3.70;99.90;;;;;;6135468;23;20025;-80
2021/12/23 06:29:41;;;;;;;74.20;30.33;;;-3.50;99.90;;;;;;6111826;23;20100;-81
2021/12/23 06:32:30;;;;;;;76.20;29.73;;;-3.40;99.90;;;;;;6130872;23;20049;-81
2021/12/23 06:35:19;;;;;;;72.03;29.45;;;-3.30;99.90;;;;;;6131505;23;20037;-81
2021/12/23 06:38:09;;;;;;;72.40;30.52;;;-3.20;99.90;;;;;;6149972;23;20045;-81
2021/12/23 06:40:58;;;;;;;72.60;30.20;;;-3.00;99.90;;;;;;6150845;23;20025;-81
2021/12/23 06:43:49;;;;;;;70.25;28.15;;;-2.90;99.90;;;;;;6149642;23;20037;-81
2021/12/23 06:46:36;;;;;;;66.00;29.17;;;-2.80;99.90;;;;;;6128314;23;20066;-79
2021/12/23 06:49:31;;;;;;;69.20;29.58;;;-2.70;99.90;;;;;;6149924;23;20268;-80
2021/12/23 06:52:20;;;;;;;73.53;31.60;;;-2.70;99.90;;;;;;6130081;23;20033;-81
2021/12/23 06:55:10;;;;;;;71.43;30.08;;;-2.70;99.90;;;;;;6156029;23;20029;-80
2021/12/23 06:57:57;;;;;;;70.75;30.17;;;-2.70;99.90;;;;;;6225689;23;20123;-82
2021/12/23 07:00:45;;;;;;;70.53;30.58;;;-2.70;99.90;;;;;;6233282;23;20082;-82
2021/12/23 07:03:56;;;;;;;69.60;29.55;;;-2.80;99.90;;;;;;6232124;23;20055;-82
2021/12/23 07:06:47;;;;;;;71.05;28.98;;;-3.00;99.90;;;;;;6229963;23;20028;-81
2021/12/23 07:09:39;;;;;;;75.57;31.77;;;-3.30;99.90;;;;;;6233596;23;20048;-82
2021/12/23 07:12:30;;;;;;;70.07;29.23;;;-3.40;99.90;;;;;;6243899;22;20023;-81
2021/12/23 07:15:18;;;;;;;69.25;28.77;;;-3.40;99.90;;;;;;6209345;23;20028;-83
2021/12/23 07:18:05;;;;;;;69.80;30.67;;;-3.30;99.90;;;;;;6210919;23;20024;-82
2021/12/23 07:20:52;;;;;;;70.22;28.35;;;-3.20;99.90;;;;;;6221252;23;20117;-80
2021/12/23 07:23:39;;;;;;;72.90;31.27;;;-3.10;99.90;;;;;;6221474;23;20024;-81
2021/12/23 07:26:27;;;;;;;67.90;29.73;;;-3.00;99.90;;;;;;6202843;23;20028;-83
2021/12/23 07:29:20;;;;;;;63.83;28.50;;;-3.00;99.90;;;;;;6222064;23;20482;-81
2021/12/23 07:32:07;;;;;;;67.60;28.42;;;-3.00;99.90;;;;;;6200192;23;20048;-81
2021/12/23 07:34:57;;;;;;;68.07;28.63;;;-2.90;99.90;;;;;;6221190;23;20370;-82
2021/12/23 07:37:49;;;;;;;66.15;28.90;;;-2.80;99.90;;;;;;6220090;23;20024;-82
2021/12/23 07:40:38;;;;;;;67.75;27.48;;;-2.70;99.90;;;;;;6242206;23;20024;-81
2021/12/23 07:46:24;;;;;;;63.65;26.42;;;-2.60;99.90;;;;;;6242662;23;20020;-82
2021/12/23 07:49:12;;;;;;;64.45;27.63;;;-2.60;99.90;;;;;;6220790;23;20048;-83
2021/12/23 07:52:02;;;;;;;69.57;28.95;;;-2.50;99.90;;;;;;6200699;23;20051;-83
2021/12/23 07:54:50;;;;;;;61.33;27.27;;;-2.60;99.90;;;;;;6221293;23;20031;-83
2021/12/23 07:57:37;;;;;;;61.60;27.60;;;-2.60;99.90;;;;;;6221263;23;20028;-82
2021/12/23 08:00:29;;;;;;;64.45;25.63;;;-2.60;99.90;;;;;;6199926;23;20059;-81
2021/12/23 08:03:19;;;;;;;58.63;25.30;;;-2.60;99.90;;;;;;6242234;23;20103;-82
2021/12/23 08:06:06;;;;;;;56.33;26.38;;;-2.40;99.90;;;;;;6229778;22;20029;-82
2021/12/23 08:08:54;;;;;;;61.90;26.05;;;-2.40;99.90;;;;;;6192505;23;20020;-81
2021/12/23 08:11:49;;;;;;;54.03;24.98;;;-2.30;99.90;;;;;;6212715;23;20028;-81
2021/12/23 08:14:39;;;;;;;61.08;26.92;;;-2.10;99.90;;;;;;6196151;23;20032;-82
2021/12/23 08:17:50;;;;;;;53.67;26.10;;;-2.00;99.90;;;;;;6207517;23;20029;-81
2021/12/23 08:24:23;;;;;;;57.50;26.25;;;-1.60;99.90;;;;;;6115696;23;20046;-82
2021/12/23 08:27:42;;;;;;;53.35;25.75;;;-1.30;99.90;;;;;;6131621;23;20038;-81
2021/12/23 08:30:29;;;;;;;56.10;25.40;;;-1.20;99.90;;;;;;6133210;23;20126;-80
2021/12/23 08:33:45;;;;;;;54.35;25.60;;;-1.10;99.90;;;;;;6135734;23;20021;-83
2021/12/23 08:36:47;;;;;;;53.38;25.75;;;-1.00;99.90;;;;;;6136196;23;20065;-81
2021/12/23 08:39:34;;;;;;;47.58;23.80;;;-0.90;99.90;;;;;;6115565;23;20155;-81
2021/12/23 08:42:24;;;;;;;46.30;22.35;;;-0.80;99.90;;;;;;6115144;23;20033;-81
2021/12/23 08:45:14;;;;;;;47.58;21.90;;;-0.70;99.90;;;;;;6115905;23;20034;-80
2021/12/23 08:48:02;;;;;;;44.80;21.35;;;-0.50;99.90;;;;;;6140623;23;20156;-82
2021/12/23 08:50:54;;;;;;;46.45;22.20;;;-0.40;99.90;;;;;;6126026;23;20017;-83
2021/12/23 08:53:42;;;;;;;49.92;23.85;;;-0.20;99.90;;;;;;6126182;23;20061;-81
2021/12/23 08:56:29;;;;;;;41.33;21.02;;;-0.20;99.90;;;;;;6124970;23;20110;-84
2021/12/23 08:59:19;;;;;;;43.40;20.98;;;-0.20;99.90;;;;;;6124804;23;20081;-84
2021/12/23 09:02:08;;;;;;;44.80;20.67;;;-0.20;99.90;;;;;;6208671;22;20016;-80
2021/12/23 09:04:58;;;;;;;37.40;19.73;;;-0.10;99.90;;;;;;6213654;23;20100;-82
2021/12/23 09:07:46;;;;;;;44.80;22.27;;;0.00;99.90;;;;;;6190693;23;20024;-80
2021/12/23 09:10:37;;;;;;;39.38;20.45;;;0.20;99.90;;;;;;6211721;23;20024;-80
2021/12/23 09:13:25;;;;;;;42.33;19.75;;;0.20;99.90;;;;;;6190562;23;20029;-82
2021/12/23 09:16:12;;;;;;;37.85;20.25;;;0.40;99.90;;;;;;6191326;23;20032;-81
2021/12/23 09:19:01;;;;;;;41.67;20.13;;;0.40;99.90;;;;;;6190399;23;20032;-80
2021/12/23 09:21:53;;;;;;;41.08;18.92;;;0.50;99.90;;;;;;6170908;23;20494;-81
2021/12/23 09:24:45;;;;;;;37.15;19.17;;;0.50;99.90;;;;;;6214023;23;20051;-83
2021/12/23 09:27:43;;;;;;;35.53;18.70;;;0.50;99.90;;;;;;6192850;23;20032;-80
2021/12/23 09:33:39;;;;;;;37.72;18.83;;;0.50;99.90;;;;;;6196389;23;20029;-84
2021/12/23 09:36:27;;;;;;;37.38;19.00;;;0.60;99.90;;;;;;6193718;23;20039;-82
2021/12/23 09:39:17;;;;;;;39.47;18.70;;;0.70;99.90;;;;;;6214187;23;20036;-84
2021/12/23 09:42:08;;;;;;;33.90;16.58;;;0.80;99.90;;;;;;6195028;23;20024;-82
2021/12/23 09:45:06;;;;;;;37.63;18.48;;;0.90;99.90;;;;;;6194038;23;20328;-82
2021/12/23 09:48:11;;;;;;;38.58;19.27;;;1.00;99.90;;;;;;6217925;23;20025;-80
2021/12/23 09:51:04;;;;;;;31.60;16.30;;;1.10;99.90;;;;;;6195560;23;20086;-82
2021/12/23 09:54:01;;;;;;;33.42;17.63;;;1.30;99.90;;;;;;6216292;23;20610;-81
2021/12/23 09:56:49;;;;;;;32.30;15.95;;;1.40;99.90;;;;;;6194932;23;20039;-82
2021/12/23 09:59:37;;;;;;;33.33;17.40;;;1.50;99.90;;;;;;6171814;23;20035;-82
2021/12/23 10:02:27;;;;;;;31.77;16.30;;;1.50;99.90;;;;;;6194971;23;20032;-81
2021/12/23 10:05:19;;;;;;;28.38;15.35;;;1.60;99.90;;;;;;6200597;22;20071;-83
2021/12/23 10:08:10;;;;;;;32.35;16.25;;;1.70;99.90;;;;;;6203082;23;20023;-82
2021/12/23 10:30:21;;;;;;;29.85;15.45;;;2.70;99.90;;;;;;6247057;23;20095;-82
2021/12/23 10:39:04;;;;;;;37.15;16.58;;;2.80;99.90;;;;;;6222391;23;20484;-82
2021/12/23 10:42:11;;;;;;;29.45;14.52;;;2.80;99.90;;;;;;6223646;23;20373;-81
2021/12/23 10:45:11;;;;;;;22.60;12.93;;;2.80;99.90;;;;;;6244858;23;20098;-82
2021/12/23 10:48:08;;;;;;;29.17;14.82;;;2.80;99.90;;;;;;6240007;23;20108;-81
2021/12/23 10:51:08;;;;;;;30.25;15.90;;;2.80;99.90;;;;;;6222323;23;20028;-84
2021/12/23 10:59:56;;;;;;;28.33;15.45;;;3.00;99.90;;;;;;6243264;23;20036;-83
2021/12/23 11:03:30;;;;;;;33.63;15.98;;;3.00;99.90;;;;;;6202459;23;20098;-79
2021/12/23 11:06:31;;;;;;;32.05;16.00;;;3.00;99.90;;;;;;6219961;23;20307;-81
2021/12/23 11:09:39;;;;;;;26.95;14.25;;;3.00;99.90;;;;;;6221706;23;20106;-81
2021/12/23 11:29:16;;;;;;;21.55;11.07;;;3.80;99.90;;;;;;6250045;23;20106;-83
2021/12/23 11:35:33;;;;;;;18.98;10.40;;;3.90;99.90;;;;;;6245045;23;20578;-83
2021/12/23 11:41:36;;;;;;;16.07;9.87;;;4.20;99.90;;;;;;6242109;23;20081;-81
2021/12/23 11:44:30;;;;;;;18.05;10.18;;;4.30;99.90;;;;;;6220199;23;20078;-81
2021/12/23 11:47:20;;;;;;;29.98;13.35;;;4.40;99.90;;;;;;6219305;23;20094;-82
2021/12/23 11:50:18;;;;;;;18.42;8.80;;;4.50;99.90;;;;;;6221946;23;20099;-83
2021/12/23 11:53:07;;;;;;;13.57;8.60;;;4.50;99.90;;;;;;6202759;23;20028;-82
2021/12/23 11:56:06;;;;;;;14.50;8.55;;;4.60;99.90;;;;;;6184718;23;20020;-83
2021/12/23 11:58:59;;;;;;;14.15;7.93;;;4.80;99.90;;;;;;6221076;23;20085;-81
2021/12/23 12:01:52;;;;;;;12.70;7.00;;;4.90;99.90;;;;;;6220368;23;20031;-81
2021/12/23 12:04:42;;;;;;;13.93;7.53;;;5.10;99.90;;;;;;6219137;23;20451;-81
2021/12/23 12:07:31;;;;;;;13.90;7.40;;;5.30;99.90;;;;;;6221351;23;20099;-80
2021/12/23 12:10:21;;;;;;;14.13;7.90;;;5.40;99.90;;;;;;6179796;23;20596;-80
2021/12/23 12:13:16;;;;;;;12.13;7.03;;;5.50;99.90;;;;;;6240516;23;20155;-82
2021/12/23 12:16:31;;;;;;;13.25;7.30;;;5.50;99.90;;;;;;6222725;23;20024;-80
2021/12/23 12:20:03;;;;;;;15.60;7.68;;;5.50;99.90;;;;;;6244276;23;20027;-82
2021/12/23 12:22:53;;;;;;;13.45;8.02;;;5.60;99.90;;;;;;6219398;23;20058;-82
2021/12/23 12:25:41;;;;;;;13.38;8.63;;;5.60;99.90;;;;;;6240293;23;20024;-83
2021/12/23 12:28:42;;;;;;;16.63;9.55;;;5.50;99.90;;;;;;6219845;23;20086;-81
2021/12/23 12:31:42;;;;;;;15.35;9.18;;;5.30;99.90;;;;;;6220039;23;20031;-81
2021/12/23 12:34:37;;;;;;;15.60;9.20;;;5.30;99.90;;;;;;6220027;23;20191;-80
2021/12/23 12:37:41;;;;;;;16.17;8.52;;;5.30;99.90;;;;;;6218324;23;20024;-79
2021/12/23 12:40:59;;;;;;;14.07;7.57;;;5.20;99.90;;;;;;6219848;23;20343;-80
2021/12/23 12:44:05;;;;;;;14.85;7.95;;;5.30;99.90;;;;;;6215850;23;20024;-81
2021/12/23 12:47:02;;;;;;;13.43;8.52;;;5.30;99.90;;;;;;6219831;23;20020;-81
2021/12/23 12:50:03;;;;;;;15.75;8.18;;;5.20;99.90;;;;;;6221336;23;20028;-82
2021/12/23 12:52:54;;;;;;;16.48;8.32;;;5.20;99.90;;;;;;6221486;23;20420;-79
2021/12/23 12:55:44;;;;;;;14.82;8.70;;;5.20;99.90;;;;;;6221521;23;20036;-81
2021/12/23 12:58:38;;;;;;;16.48;8.60;;;5.20;99.90;;;;;;6221249;23;20419;-81
2021/12/23 13:01:37;;;;;;;15.68;8.35;;;5.20;99.90;;;;;;6200693;23;20031;-82
2021/12/23 13:04:43;;;;;;;19.75;8.98;;;5.20;99.90;;;;;;6224073;23;20024;-80
2021/12/23 13:07:37;;;;;;;14.52;8.95;;;5.20;99.90;;;;;;6221372;23;20028;-82
2021/12/23 13:10:31;;;;;;;17.33;10.40;;;5.20;99.90;;;;;;6223825;23;20066;-80
2021/12/23 13:13:32;;;;;;;17.48;8.82;;;5.10;99.90;;;;;;6243001;23;20020;-81
2021/12/23 13:16:25;;;;;;;16.35;8.52;;;5.10;99.90;;;;;;6218328;23;20021;-82
2021/12/23 13:19:21;;;;;;;17.70;8.43;;;5.10;99.90;;;;;;6242840;23;20347;-81
2021/12/23 13:22:14;;;;;;;16.48;9.27;;;5.10;99.90;;;;;;6219539;23;20056;-81
2021/12/23 13:25:04;;;;;;;15.05;8.60;;;5.10;99.90;;;;;;6218223;23;20031;-80
2021/12/23 13:27:54;;;;;;;13.45;8.25;;;5.20;99.90;;;;;;6217772;23;20028;-82
2021/12/23 13:30:41;;;;;;;17.35;8.02;;;5.10;99.90;;;;;;6203159;23;20027;-82
2021/12/23 13:33:42;;;;;;;14.05;8.50;;;5.10;99.90;;;;;;6222054;23;20154;-84
2021/12/23 13:36:39;;;;;;;15.88;8.25;;;5.20;99.90;;;;;;6222215;23;20431;-83
2021/12/23 13:39:30;;;;;;;13.82;8.30;;;5.20;99.90;;;;;;6223581;23;20467;-83
2021/12/23 13:42:17;;;;;;;13.95;8.10;;;5.10;99.90;;;;;;6243406;23;20035;-83
2021/12/23 13:45:08;;;;;;;15.13;8.70;;;5.10;99.90;;;;;;6244707;23;20032;-83
2021/12/23 13:47:58;;;;;;;13.60;8.52;;;5.10;99.90;;;;;;6222563;23;20024;-82
2021/12/23 13:50:45;;;;;;;14.52;8.65;;;5.20;99.90;;;;;;6220041;23;20016;-83
2021/12/23 13:53:33;;;;;;;16.00;8.57;;;5.10;99.90;;;;;;6244893;23;20055;-82
2021/12/23 13:56:20;;;;;;;13.70;8.50;;;5.20;99.90;;;;;;6182614;23;20107;-84
2021/12/23 13:59:14;;;;;;;16.10;8.75;;;5.10;99.90;;;;;;6181265;23;20336;-83
2021/12/23 14:02:10;;;;;;;14.50;8.88;;;5.10;99.90;;;;;;6202779;23;20031;-82
2021/12/23 14:05:05;;;;;;;16.42;8.90;;;5.00;99.90;;;;;;6245461;23;20607;-82
2021/12/23 14:07:54;;;;;;;20.55;8.60;;;5.00;99.90;;;;;;6243251;23;20038;-82
2021/12/23 14:10:47;;;;;;;17.35;9.43;;;4.90;99.90;;;;;;6223378;23;20036;-81
2021/12/23 14:13:54;;;;;;;14.25;9.00;;;5.00;99.90;;;;;;6226364;23;20031;-83
2021/12/23 14:16:41;;;;;;;17.85;9.35;;;5.00;99.90;;;;;;6219672;23;20034;-81
2021/12/23 14:19:48;;;;;;;17.45;8.65;;;5.00;99.90;;;;;;6241890;23;20122;-81
2021/12/23 14:26:02;;;;;;;18.73;9.85;;;4.90;99.90;;;;;;6242143;23;20491;-82
2021/12/23 14:28:54;;;;;;;17.48;9.65;;;4.90;99.90;;;;;;6225670;23;20030;-84
2021/12/23 14:31:51;;;;;;;22.77;10.60;;;4.90;99.90;;;;;;6226476;23;20407;-84
2021/12/23 14:34:42;;;;;;;21.67;10.02;;;4.90;99.90;;;;;;6201283;23;20039;-82
2021/12/23 14:37:57;;;;;;;21.67;9.68;;;4.90;99.90;;;;;;6221830;23;20039;-83
2021/12/23 14:41:00;;;;;;;16.13;9.63;;;4.80;99.90;;;;;;6220568;23;20051;-81
2021/12/23 14:44:12;;;;;;;18.80;9.43;;;4.90;99.90;;;;;;6201034;23;20016;-81
2021/12/23 14:47:26;;;;;;;16.30;9.57;;;4.90;99.90;;;;;;6242306;23;20315;-80
2021/12/23 14:50:17;;;;;;;18.13;9.10;;;5.00;99.90;;;;;;6244935;23;20039;-82
2021/12/23 14:53:19;;;;;;;14.82;8.80;;;5.30;99.90;;;;;;6202081;23;20028;-80
2021/12/23 14:56:07;;;;;;;19.27;9.57;;;5.60;99.90;;;;;;6220942;23;20046;-81
2021/12/23 14:59:11;;;;;;;16.27;9.07;;;5.70;99.90;;;;;;6221090;23;20038;-79
2021/12/23 15:02:10;;;;;;;17.70;9.15;;;5.80;99.90;;;;;;6222329;23;20027;-81
2021/12/23 15:05:25;;;;;;;16.00;8.85;;;5.90;99.90;;;;;;6222371;23;20035;-80
2021/12/23 15:08:19;;;;;;;18.15;9.80;;;6.00;99.90;;;;;;6222133;23;20469;-79
2021/12/23 15:11:08;;;;;;;16.42;9.02;;;5.80;99.90;;;;;;6221916;23;20042;-82
2021/12/23 15:13:57;;;;;;;15.98;9.38;;;5.60;99.90;;;;;;6202124;23;20024;-80
2021/12/23 15:16:47;;;;;;;18.33;9.85;;;5.50;99.90;;;;;;6222314;23;20431;-81
2021/12/23 15:19:38;;;;;;;16.48;9.40;;;5.30;99.90;;;;;;6201371;23;20034;-82
2021/12/23 15:22:36;;;;;;;17.98;10.25;;;5.10;99.90;;;;;;6202254;23;20162;-84
2021/12/23 15:25:39;;;;;;;20.38;10.93;;;5.00;99.90;;;;;;6223234;23;20028;-82
2021/12/23 15:28:39;;;;;;;21.70;11.35;;;4.90;99.90;;;;;;6243281;23;20466;-80
2021/12/23 15:31:27;;;;;;;22.17;11.02;;;4.80;99.90;;;;;;6230166;23;20032;-79
2021/12/23 15:34:15;;;;;;;19.67;11.65;;;4.70;99.90;;;;;;6256613;23;20039;-78
2021/12/23 15:37:10;;;;;;;20.13;10.20;;;4.60;99.90;;;;;;6259445;22;20116;-81
2021/12/23 15:39:58;;;;;;;;;;;4.50;99.90;;;;;;6262703;23;20064;-80
2021/12/23 15:43:24;;;;;;;24.45;11.48;;;4.50;99.90;;;;;;6232792;23;19930;-81
2021/12/23 15:46:11;;;;;;;28.40;12.82;;;4.40;99.90;;;;;;6243870;23;20020;-80
2021/12/23 15:49:01;;;;;;;22.48;11.85;;;4.20;99.90;;;;;;6236588;23;20076;-80
2021/12/23 15:51:52;;;;;;;23.75;12.00;;;4.20;99.90;;;;;;6219014;23;20572;-82
2021/12/23 15:54:40;;;;;;;20.73;12.00;;;4.30;99.90;;;;;;6259516;23;20023;-80
2021/12/23 15:57:28;;;;;;;19.80;10.93;;;4.30;99.90;;;;;;6236811;23;20127;-82
2021/12/23 16:00:19;;;;;;;25.52;12.10;;;4.40;99.90;;;;;;6237474;23;20024;-81
2021/12/23 16:03:06;;;;;;;20.25;11.65;;;4.40;99.90;;;;;;6238976;23;20090;-82
2021/12/23 16:09:05;;;;;;;19.63;10.23;;;4.50;99.90;;;;;;6245218;23;20434;-80
2021/12/23 16:11:55;;;;;;;16.38;10.38;;;4.50;99.90;;;;;;6261925;23;20024;-81
2021/12/23 16:14:45;;;;;;;18.38;10.40;;;4.60;99.90;;;;;;6218166;23;20030;-79
2021/12/23 16:17:35;;;;;;;18.67;10.75;;;4.60;99.90;;;;;;6239149;23;20122;-81
2021/12/23 16:20:23;;;;;;;21.30;11.63;;;4.70;99.90;;;;;;6253419;23;20043;-80